Charter Quote
Worldwide +1-877-727-2538 Call
Select Language Lang
SAFETY RELIABILITY EXPERIENCE

Private Jet Charter Services - Meilan (ZJHK)

Paramount Business Jets offers private jet charter flights and luxury airliner charters to and from Meilan.

AIRPORT INFORMATION
ICAOZJHK
IATAHAK
LOCATIONHaikou, China
FACILITY TYPEAIRPORT

At Paramount Business Jets you can hire chartered private jets to and from Meilan with as little as 4 hours of notice. All flights booked via Paramount Business Jets are operated by certified direct air carriers that meet and exceed the FAA part 135 and 121 protocol or a foreign equivalent safety authority. Furthermore, Paramount Business Jets subscribes to ARGUS for their third party safety checks of operators, aircraft, and crews prior each and every flight to and from Meilan and worldwide.

  • Quote a trip using Meilan or call us 24/7 - 365 days a year at +1-877-727-2538.
Questions? Call +1-877-727-2538

METAR Weather Data at Meilan, ZJHK, HAK

STATIONZJHK
OBSERVEDTue Jul 16, 04:00 UTC
NOWTue Jul 16, 04:18 UTC
AGE18 min ago
WINDSW at 7 mph
VISIBILITYgreater than 7 miles
CLOUDSclear skies
TEMP95°F (35°C)
DEWPT77°F (25°C)
HUMIDITY56%
HEAT INDEX110°F (43°C)
BAROMETER1004 hPa (29.65 in Hg)
METARZJHK 160400Z 23003MPS 200V270 CAVOK 35/25 Q1004 NOSIG

Call us on +1-877-727-2538 (24 Hours) to Hire a Private Jet or Get a Quick Quote.

Find Airports Near any Location

Processing
...